sensor_id;sensor_type;location;lat;lon;timestamp;pressure;altitude;pressure_sealevel;temperature;humidity
68107;BME280;54892;47.488;19.026;2023-03-21T00:02:42;99969.59;;;12.69;62.35
68107;BME280;54892;47.488;19.026;2023-03-21T00:05:46;99966.41;;;12.72;62.12
68107;BME280;54892;47.488;19.026;2023-03-21T00:08:52;99966.12;;;12.73;62.08
68107;BME280;54892;47.488;19.026;2023-03-21T00:11:56;99976.47;;;12.75;62.07
68107;BME280;54892;47.488;19.026;2023-03-21T00:15:04;99963.50;;;12.73;62.08
68107;BME280;54892;47.488;19.026;2023-03-21T00:18:07;99970.66;;;12.73;62.19
68107;BME280;54892;47.488;19.026;2023-03-21T00:21:12;99960.06;;;12.73;62.21
68107;BME280;54892;47.488;19.026;2023-03-21T00:24:36;99954.50;;;12.69;62.16
68107;BME280;54892;47.488;19.026;2023-03-21T00:27:40;99950.00;;;12.64;62.47
68107;BME280;54892;47.488;19.026;2023-03-21T00:31:03;99950.53;;;12.67;62.53
68107;BME280;54892;47.488;19.026;2023-03-21T00:34:06;99939.94;;;12.61;62.80
68107;BME280;54892;47.488;19.026;2023-03-21T00:37:10;99938.84;;;12.78;62.26
68107;BME280;54892;47.488;19.026;2023-03-21T00:40:15;99935.72;;;12.66;62.66
68107;BME280;54892;47.488;19.026;2023-03-21T00:43:29;99935.72;;;12.66;62.66
68107;BME280;54892;47.488;19.026;2023-03-21T00:46:34;99930.94;;;12.73;62.40
68107;BME280;54892;47.488;19.026;2023-03-21T00:49:49;99935.72;;;12.66;62.57
68107;BME280;54892;47.488;19.026;2023-03-21T00:52:52;99928.88;;;12.54;62.97
68107;BME280;54892;47.488;19.026;2023-03-21T00:55:55;99933.09;;;12.55;62.89
68107;BME280;54892;47.488;19.026;2023-03-21T00:58:58;99921.47;;;12.46;63.14
68107;BME280;54892;47.488;19.026;2023-03-21T01:02:03;99925.47;;;12.38;63.43
68107;BME280;54892;47.488;19.026;2023-03-21T01:05:08;99934.50;;;12.32;63.60
68107;BME280;54892;47.488;19.026;2023-03-21T01:08:12;99928.66;;;12.35;63.50
68107;BME280;54892;47.488;19.026;2023-03-21T01:11:27;99928.12;;;12.23;63.95
68107;BME280;54892;47.488;19.026;2023-03-21T01:14:31;99926.03;;;12.20;64.01
68107;BME280;54892;47.488;19.026;2023-03-21T01:17:36;99922.88;;;12.17;64.10
68107;BME280;54892;47.488;19.026;2023-03-21T01:20:39;99926.28;;;12.18;64.16
68107;BME280;54892;47.488;19.026;2023-03-21T01:23:44;99919.97;;;12.09;64.43
68107;BME280;54892;47.488;19.026;2023-03-21T01:26:47;99918.13;;;12.04;64.67
68107;BME280;54892;47.488;19.026;2023-03-21T01:29:50;99921.03;;;12.08;64.56
68107;BME280;54892;47.488;19.026;2023-03-21T01:32:55;99920.25;;;12.02;64.72
68107;BME280;54892;47.488;19.026;2023-03-21T01:35:58;99913.09;;;12.02;64.70
68107;BME280;54892;47.488;19.026;2023-03-21T01:39:12;99921.56;;;12.05;64.59
68107;BME280;54892;47.488;19.026;2023-03-21T01:42:16;99917.84;;;11.95;64.93
68107;BME280;54892;47.488;19.026;2023-03-21T01:48:43;99911.22;;;11.93;64.94
68107;BME280;54892;47.488;19.026;2023-03-21T01:51:47;99923.66;;;11.92;64.93
68107;BME280;54892;47.488;19.026;2023-03-21T01:54:52;99919.94;;;11.88;65.08
68107;BME280;54892;47.488;19.026;2023-03-21T01:57:57;99919.16;;;11.77;65.43
68107;BME280;54892;47.488;19.026;2023-03-21T02:01:07;99913.88;;;11.77;65.58
68107;BME280;54892;47.488;19.026;2023-03-21T02:04:13;99918.66;;;11.75;65.68
68107;BME280;54892;47.488;19.026;2023-03-21T02:07:16;99914.41;;;11.74;65.73
68107;BME280;54892;47.488;19.026;2023-03-21T02:10:23;99909.66;;;11.71;65.90
68107;BME280;54892;47.488;19.026;2023-03-21T02:13:28;99920.75;;;11.73;65.89
68107;BME280;54892;47.488;19.026;2023-03-21T02:16:40;99914.94;;;11.71;65.92
68107;BME280;54892;47.488;19.026;2023-03-21T02:19:56;99909.63;;;11.76;65.79
68107;BME280;54892;47.488;19.026;2023-03-21T02:33:40;99909.91;;;11.85;65.40
68107;BME280;54892;47.488;19.026;2023-03-21T02:36:56;99914.69;;;11.83;65.33
68107;BME280;54892;47.488;19.026;2023-03-21T02:40:06;99916.25;;;11.89;65.00
68107;BME280;54892;47.488;19.026;2023-03-21T02:43:12;99921.53;;;11.84;65.12
68107;BME280;54892;47.488;19.026;2023-03-21T02:46:25;99922.88;;;11.86;64.83
68107;BME280;54892;47.488;19.026;2023-03-21T02:49:41;99922.34;;;11.90;64.63
68107;BME280;54892;47.488;19.026;2023-03-21T02:52:47;99916.00;;;11.91;64.43
68107;BME280;54892;47.488;19.026;2023-03-21T02:55:51;99920.75;;;11.88;64.45
68107;BME280;54892;47.488;19.026;2023-03-21T02:58:54;99918.38;;;12.02;63.97
68107;BME280;54892;47.488;19.026;2023-03-21T03:01:58;99923.41;;;11.88;64.10
68107;BME280;54892;47.488;19.026;2023-03-21T03:05:08;99920.75;;;11.94;63.87
68107;BME280;54892;47.488;19.026;2023-03-21T03:08:25;99914.69;;;11.98;63.65
68107;BME280;54892;47.488;19.026;2023-03-21T03:11:40;99918.09;;;11.94;63.75
68107;BME280;54892;47.488;19.026;2023-03-21T03:14:46;99922.31;;;11.95;63.71
68107;BME280;54892;47.488;19.026;2023-03-21T03:18:06;99916.50;;;11.93;63.70
68107;BME280;54892;47.488;19.026;2023-03-21T03:21:13;99921.03;;;11.97;63.56
68107;BME280;54892;47.488;19.026;2023-03-21T03:24:20;99915.72;;;11.92;63.68
68107;BME280;54892;47.488;19.026;2023-03-21T03:27:27;99909.37;;;11.88;63.75
68107;BME280;54892;47.488;19.026;2023-03-21T03:30:33;99914.97;;;12.02;63.23
68107;BME280;54892;47.488;19.026;2023-03-21T03:33:45;99915.19;;;11.90;63.67
68107;BME280;54892;47.488;19.026;2023-03-21T03:36:53;99908.56;;;11.93;63.61
68107;BME280;54892;47.488;19.026;2023-03-21T03:40:01;99912.81;;;11.88;63.73
68107;BME280;54892;47.488;19.026;2023-03-21T03:43:07;99907.78;;;11.92;63.77
68107;BME280;54892;47.488;19.026;2023-03-21T03:46:13;99908.31;;;11.89;63.81
68107;BME280;54892;47.488;19.026;2023-03-21T03:49:19;99908.87;;;11.81;63.96
68107;BME280;54892;47.488;19.026;2023-03-21T03:52:24;99905.69;;;11.79;64.08
68107;BME280;54892;47.488;19.026;2023-03-21T03:55:30;99912.56;;;11.75;64.23
68107;BME280;54892;47.488;19.026;2023-03-21T03:58:35;99912.28;;;11.71;64.38
68107;BME280;54892;47.488;19.026;2023-03-21T04:01:46;99913.62;;;11.79;64.08
68107;BME280;54892;47.488;19.026;2023-03-21T04:04:50;99918.88;;;11.68;64.40
68107;BME280;54892;47.488;19.026;2023-03-21T04:07:54;99907.81;;;11.77;64.04
68107;BME280;54892;47.488;19.026;2023-03-21T04:10:58;99909.37;;;11.72;63.99
68107;BME280;54892;47.488;19.026;2023-03-21T04:14:03;99910.72;;;11.75;63.91
68107;BME280;54892;47.488;19.026;2023-03-21T04:17:06;99906.75;;;11.78;63.86
68107;BME280;54892;47.488;19.026;2023-03-21T04:20:10;99918.38;;;11.66;64.27
68107;BME280;54892;47.488;19.026;2023-03-21T04:23:24;99917.84;;;11.75;63.93
68107;BME280;54892;47.488;19.026;2023-03-21T04:26:29;99916.53;;;11.72;64.07
68107;BME280;54892;47.488;19.026;2023-03-21T04:29:34;99919.94;;;11.72;64.07
68107;BME280;54892;47.488;19.026;2023-03-21T04:32:37;99919.97;;;11.67;64.35
68107;BME280;54892;47.488;19.026;2023-03-21T04:35:41;99923.13;;;11.59;64.54
68107;BME280;54892;47.488;19.026;2023-03-21T04:38:46;99916.50;;;11.62;64.48
68107;BME280;54892;47.488;19.026;2023-03-21T04:41:51;99921.78;;;11.51;64.82
68107;BME280;54892;47.488;19.026;2023-03-21T04:44:54;99916.50;;;11.46;65.08
68107;BME280;54892;47.488;19.026;2023-03-21T04:47:59;99913.59;;;11.42;65.21
68107;BME280;54892;47.488;19.026;2023-03-21T04:51:02;99920.91;;;12.59;69.76
68107;BME280;54892;47.488;19.026;2023-03-21T04:54:06;99918.75;;;14.26;68.25
68107;BME280;54892;47.488;19.026;2023-03-21T04:57:09;99919.44;;;14.37;57.08
68107;BME280;54892;47.488;19.026;2023-03-21T05:00:12;99917.69;;;13.28;58.97
68107;BME280;54892;47.488;19.026;2023-03-21T05:03:16;99925.94;;;12.61;61.03
68107;BME280;54892;47.488;19.026;2023-03-21T05:06:20;99919.94;;;12.29;61.99
68107;BME280;54892;47.488;19.026;2023-03-21T05:09:23;99919.97;;;12.09;62.80
68107;BME280;54892;47.488;19.026;2023-03-21T05:12:28;99922.06;;;11.96;63.10
68107;BME280;54892;47.488;19.026;2023-03-21T05:15:31;99928.41;;;11.85;63.51
68107;BME280;54892;47.488;19.026;2023-03-21T05:18:35;99928.44;;;11.80;63.70
68107;BME280;54892;47.488;19.026;2023-03-21T05:21:39;99930.00;;;11.76;63.98
68107;BME280;54892;47.488;19.026;2023-03-21T05:24:42;99930.28;;;11.69;64.07
68107;BME280;54892;47.488;19.026;2023-03-21T05:27:52;99926.84;;;11.79;63.77
68107;BME280;54892;47.488;19.026;2023-03-21T05:30:55;99941.63;;;11.75;64.01
68107;BME280;54892;47.488;19.026;2023-03-21T05:33:59;99933.19;;;11.78;63.97
68107;BME280;54892;47.488;19.026;2023-03-21T05:37:02;99938.22;;;11.84;63.85
68107;BME280;54892;47.488;19.026;2023-03-21T05:40:07;99950.63;;;11.89;63.80
68107;BME280;54892;47.488;19.026;2023-03-21T05:43:12;99944.81;;;11.92;63.90
68107;BME280;54892;47.488;19.026;2023-03-21T05:46:15;99950.41;;;12.06;63.46
68107;BME280;54892;47.488;19.026;2023-03-21T05:49:18;99951.19;;;12.12;63.36
68107;BME280;54892;47.488;19.026;2023-03-21T05:52:23;99958.06;;;12.28;62.82
68107;BME280;54892;47.488;19.026;2023-03-21T05:55:26;99955.91;;;12.30;63.03
68107;BME280;54892;47.488;19.026;2023-03-21T05:58:31;99958.31;;;12.32;62.83
68107;BME280;54892;47.488;19.026;2023-03-21T06:01:34;99960.41;;;12.40;62.56
68107;BME280;54892;47.488;19.026;2023-03-21T06:04:38;99963.81;;;12.51;62.18
68107;BME280;54892;47.488;19.026;2023-03-21T06:07:41;99964.88;;;12.55;62.23
68107;BME280;54892;47.488;19.026;2023-03-21T06:10:44;99968.06;;;12.52;61.99
68107;BME280;54892;47.488;19.026;2023-03-21T06:13:49;99961.41;;;12.55;61.93
68107;BME280;54892;47.488;19.026;2023-03-21T06:16:52;99965.41;;;12.57;61.95
68107;BME280;54892;47.488;19.026;2023-03-21T06:19:55;99959.00;;;12.74;61.47
68107;BME280;54892;47.488;19.026;2023-03-21T06:22:59;99959.94;;;13.04;60.56
68107;BME280;54892;47.488;19.026;2023-03-21T06:26:01;99954.50;;;13.24;59.84
68107;BME280;54892;47.488;19.026;2023-03-21T06:29:06;99965.53;;;13.52;59.23
68107;BME280;54892;47.488;19.026;2023-03-21T06:32:09;99960.72;;;14.24;57.32
68107;BME280;54892;47.488;19.026;2023-03-21T06:35:13;99963.44;;;15.16;54.69
68107;BME280;54892;47.488;19.026;2023-03-21T06:38:16;99966.59;;;16.22;51.49
68107;BME280;54892;47.488;19.026;2023-03-21T06:41:19;99967.59;;;16.26;50.39
68107;BME280;54892;47.488;19.026;2023-03-21T06:44:24;99961.72;;;15.96;51.12
68107;BME280;54892;47.488;19.026;2023-03-21T06:47:28;99960.63;;;15.45;52.21
68107;BME280;54892;47.488;19.026;2023-03-21T06:50:31;99968.31;;;15.09;53.36
68107;BME280;54892;47.488;19.026;2023-03-21T06:53:34;99969.47;;;14.78;54.41
68107;BME280;54892;47.488;19.026;2023-03-21T06:56:38;99974.19;;;15.05;53.94
68107;BME280;54892;47.488;19.026;2023-03-21T06:59:43;99974.06;;;15.16;53.50
68107;BME280;54892;47.488;19.026;2023-03-21T07:02:46;99974.84;;;15.93;52.01
68107;BME280;54892;47.488;19.026;2023-03-21T07:05:51;99975.16;;;17.90;47.56
68107;BME280;54892;47.488;19.026;2023-03-21T07:08:54;99981.34;;;19.21;43.78
68107;BME280;54892;47.488;19.026;2023-03-21T07:11:58;99985.16;;;20.20;41.25
68107;BME280;54892;47.488;19.026;2023-03-21T07:15:03;99984.75;;;20.87;39.92
68107;BME280;54892;47.488;19.026;2023-03-21T07:18:08;99976.56;;;22.14;36.69
68107;BME280;54892;47.488;19.026;2023-03-21T07:21:12;99987.97;;;23.35;34.34
68107;BME280;54892;47.488;19.026;2023-03-21T07:24:15;99987.31;;;24.27;32.21
68107;BME280;54892;47.488;19.026;2023-03-21T07:27:18;99985.25;;;24.72;30.76
68107;BME280;54892;47.488;19.026;2023-03-21T07:30:23;99991.16;;;24.77;30.46
68107;BME280;54892;47.488;19.026;2023-03-21T07:33:26;99990.88;;;25.18;30.23
68107;BME280;54892;47.488;19.026;2023-03-21T07:36:31;99992.66;;;25.30;29.65
68107;BME280;54892;47.488;19.026;2023-03-21T07:39:34;99988.97;;;25.58;29.39
68107;BME280;54892;47.488;19.026;2023-03-21T07:42:38;99986.72;;;26.26;28.16
68107;BME280;54892;47.488;19.026;2023-03-21T07:45:43;99996.62;;;26.69;27.86
68107;BME280;54892;47.488;19.026;2023-03-21T07:48:47;99993.06;;;26.65;27.34
68107;BME280;54892;47.488;19.026;2023-03-21T07:51:51;99986.22;;;26.44;27.47
68107;BME280;54892;47.488;19.026;2023-03-21T07:54:56;99987.34;;;26.43;27.24
68107;BME280;54892;47.488;19.026;2023-03-21T07:57:59;99981.62;;;26.48;27.39
68107;BME280;54892;47.488;19.026;2023-03-21T08:01:04;99982.22;;;25.29;28.88
68107;BME280;54892;47.488;19.026;2023-03-21T08:04:12;99980.34;;;24.26;30.65
68107;BME280;54892;47.488;19.026;2023-03-21T08:07:15;99979.41;;;22.92;32.38
68107;BME280;54892;47.488;19.026;2023-03-21T08:10:19;99971.72;;;21.95;34.46
68107;BME280;54892;47.488;19.026;2023-03-21T08:13:23;99972.41;;;21.16;35.99
68107;BME280;54892;47.488;19.026;2023-03-21T08:16:28;99971.16;;;20.92;36.49
68107;BME280;54892;47.488;19.026;2023-03-21T08:19:32;99971.84;;;20.71;36.82
68107;BME280;54892;47.488;19.026;2023-03-21T08:22:35;99971.34;;;20.48;36.55
68107;BME280;54892;47.488;19.026;2023-03-21T08:25:39;99971.16;;;20.14;37.44
68107;BME280;54892;47.488;19.026;2023-03-21T08:28:42;99966.66;;;19.80;37.36
68107;BME280;54892;47.488;19.026;2023-03-21T08:31:48;99972.19;;;19.04;39.21
68107;BME280;54892;47.488;19.026;2023-03-21T08:34:51;99973.13;;;18.99;39.44
68107;BME280;54892;47.488;19.026;2023-03-21T08:37:55;99968.06;;;18.98;39.79
68107;BME280;54892;47.488;19.026;2023-03-21T08:40:59;99979.00;;;18.70;39.92
68107;BME280;54892;47.488;19.026;2023-03-21T08:44:03;99977.22;;;18.56;40.30
68107;BME280;54892;47.488;19.026;2023-03-21T08:47:08;99979.03;;;18.38;40.65
68107;BME280;54892;47.488;19.026;2023-03-21T08:50:13;99985.63;;;18.32;40.95
68107;BME280;54892;47.488;19.026;2023-03-21T08:53:18;99983.56;;;18.29;40.29
68107;BME280;54892;47.488;19.026;2023-03-21T08:56:21;99984.31;;;18.30;40.47
68107;BME280;54892;47.488;19.026;2023-03-21T08:59:25;99983.31;;;17.94;41.88
68107;BME280;54892;47.488;19.026;2023-03-21T09:02:30;99978.97;;;17.75;42.30
68107;BME280;54892;47.488;19.026;2023-03-21T09:05:34;99986.97;;;17.75;42.46
68107;BME280;54892;47.488;19.026;2023-03-21T09:08:38;99984.44;;;17.70;42.12
68107;BME280;54892;47.488;19.026;2023-03-21T09:11:42;99989.34;;;17.77;42.13
68107;BME280;54892;47.488;19.026;2023-03-21T09:14:46;99984.69;;;17.83;41.97
68107;BME280;54892;47.488;19.026;2023-03-21T09:17:52;99978.78;;;17.94;41.79
68107;BME280;54892;47.488;19.026;2023-03-21T09:20:58;99981.50;;;17.80;41.68
68107;BME280;54892;47.488;19.026;2023-03-21T09:24:02;99983.31;;;17.48;41.40
68107;BME280;54892;47.488;19.026;2023-03-21T09:27:06;99976.53;;;17.42;42.08
68107;BME280;54892;47.488;19.026;2023-03-21T09:30:11;99983.31;;;17.48;41.96
68107;BME280;54892;47.488;19.026;2023-03-21T09:33:17;99983.06;;;17.36;42.04
68107;BME280;54892;47.488;19.026;2023-03-21T09:36:22;99989.47;;;17.12;42.78
68107;BME280;54892;47.488;19.026;2023-03-21T09:39:26;99992.91;;;17.13;43.09
68107;BME280;54892;47.488;19.026;2023-03-21T09:42:32;99990.47;;;17.02;43.42
68107;BME280;54892;47.488;19.026;2023-03-21T09:45:42;99989.75;;;17.11;43.04
68107;BME280;54892;47.488;19.026;2023-03-21T09:48:49;99977.00;;;16.94;43.96
68107;BME280;54892;47.488;19.026;2023-03-21T09:51:58;99985.22;;;16.97;42.37
68107;BME280;54892;47.488;19.026;2023-03-21T09:55:04;99981.72;;;17.25;42.56
68107;BME280;54892;47.488;19.026;2023-03-21T09:58:23;99983.22;;;17.03;42.42
68107;BME280;54892;47.488;19.026;2023-03-21T10:01:28;99977.41;;;17.01;42.92
68107;BME280;54892;47.488;19.026;2023-03-21T10:04:34;99974.16;;;16.76;42.74
68107;BME280;54892;47.488;19.026;2023-03-21T10:07:39;99968.63;;;16.58;43.64
68107;BME280;54892;47.488;19.026;2023-03-21T10:10:44;99980.44;;;16.52;43.05
68107;BME280;54892;47.488;19.026;2023-03-21T10:13:48;99969.41;;;16.45;43.24
68107;BME280;54892;47.488;19.026;2023-03-21T10:16:54;99978.09;;;16.51;44.07
68107;BME280;54892;47.488;19.026;2023-03-21T10:20:06;99967.12;;;16.52;43.57
68107;BME280;54892;47.488;19.026;2023-03-21T10:23:14;99962.87;;;16.51;43.58
68107;BME280;54892;47.488;19.026;2023-03-21T10:26:18;99956.00;;;16.50;43.51
68107;BME280;54892;47.488;19.026;2023-03-21T10:29:23;99960.12;;;16.56;43.33
68107;BME280;54892;47.488;19.026;2023-03-21T10:32:28;99953.72;;;16.57;43.51
68107;BME280;54892;47.488;19.026;2023-03-21T10:35:33;99958.44;;;16.74;43.51
68107;BME280;54892;47.488;19.026;2023-03-21T10:38:38;99951.56;;;16.59;41.98
68107;BME280;54892;47.488;19.026;2023-03-21T10:41:42;99951.84;;;16.72;41.75
68107;BME280;54892;47.488;19.026;2023-03-21T10:44:46;99953.41;;;16.73;41.04
68107;BME280;54892;47.488;19.026;2023-03-21T10:47:50;99960.12;;;16.84;39.88
68107;BME280;54892;47.488;19.026;2023-03-21T10:50:57;99954.09;;;16.93;39.41
68107;BME280;54892;47.488;19.026;2023-03-21T10:54:03;99948.28;;;16.90;39.54
68107;BME280;54892;47.488;19.026;2023-03-21T10:57:07;99946.09;;;16.93;37.87
68107;BME280;54892;47.488;19.026;2023-03-21T11:00:15;99948.75;;;16.93;37.83
68107;BME280;54892;47.488;19.026;2023-03-21T11:03:21;99946.16;;;17.15;38.93
68107;BME280;54892;47.488;19.026;2023-03-21T11:06:28;99932.47;;;17.08;38.95
68107;BME280;54892;47.488;19.026;2023-03-21T11:09:43;99936.81;;;17.04;39.94
68107;BME280;54892;47.488;19.026;2023-03-21T11:12:46;99932.28;;;17.04;40.48
68107;BME280;54892;47.488;19.026;2023-03-21T11:15:51;99922.47;;;17.37;39.21
68107;BME280;54892;47.488;19.026;2023-03-21T11:18:56;99918.72;;;17.38;39.10
68107;BME280;54892;47.488;19.026;2023-03-21T11:22:05;99912.97;;;17.44;38.58
68107;BME280;54892;47.488;19.026;2023-03-21T11:25:09;99917.03;;;17.42;37.57
68107;BME280;54892;47.488;19.026;2023-03-21T11:28:13;99917.69;;;17.47;37.38
68107;BME280;54892;47.488;19.026;2023-03-21T11:31:17;99909.84;;;17.42;37.98
68107;BME280;54892;47.488;19.026;2023-03-21T11:34:23;99914.12;;;17.29;38.90
68107;BME280;54892;47.488;19.026;2023-03-21T11:37:31;99903.38;;;17.20;40.00
68107;BME280;54892;47.488;19.026;2023-03-21T11:40:35;99891.75;;;17.16;39.34
68107;BME280;54892;47.488;19.026;2023-03-21T11:43:39;99899.53;;;17.27;39.28
68107;BME280;54892;47.488;19.026;2023-03-21T11:46:43;99899.50;;;17.49;38.24
68107;BME280;54892;47.488;19.026;2023-03-21T11:49:46;99887.50;;;17.61;38.00
68107;BME280;54892;47.488;19.026;2023-03-21T11:53:00;99896.47;;;17.65;36.94
68107;BME280;54892;47.488;19.026;2023-03-21T11:56:14;99890.22;;;17.70;35.77
68107;BME280;54892;47.488;19.026;2023-03-21T11:59:31;99884.69;;;17.66;36.06
68107;BME280;54892;47.488;19.026;2023-03-21T12:02:46;99874.19;;;17.70;36.55
68107;BME280;54892;47.488;19.026;2023-03-21T12:05:57;99872.53;;;17.83;37.63
68107;BME280;54892;47.488;19.026;2023-03-21T12:09:10;99871.25;;;17.71;37.36
68107;BME280;54892;47.488;19.026;2023-03-21T12:12:22;99868.94;;;17.56;37.88
68107;BME280;54892;47.488;19.026;2023-03-21T12:15:39;99865.03;;;17.62;37.60
68107;BME280;54892;47.488;19.026;2023-03-21T12:18:48;99848.59;;;17.69;37.99
68107;BME280;54892;47.488;19.026;2023-03-21T12:22:00;99855.59;;;17.87;38.88
68107;BME280;54892;47.488;19.026;2023-03-21T12:25:11;99854.38;;;17.62;39.00
68107;BME280;54892;47.488;19.026;2023-03-21T12:28:20;99856.28;;;17.39;39.54
68107;BME280;54892;47.488;19.026;2023-03-21T12:31:35;99855.34;;;17.34;39.65
68107;BME280;54892;47.488;19.026;2023-03-21T12:34:47;99854.72;;;17.15;40.30
68107;BME280;54892;47.488;19.026;2023-03-21T12:37:56;99845.00;;;16.96;40.49
68107;BME280;54892;47.488;19.026;2023-03-21T12:41:07;99853.50;;;16.98;40.15
68107;BME280;54892;47.488;19.026;2023-03-21T12:44:13;99845.00;;;16.82;40.91
68107;BME280;54892;47.488;19.026;2023-03-21T12:47:18;99857.88;;;16.80;41.36
68107;BME280;54892;47.488;19.026;2023-03-21T12:50:24;99849.06;;;16.80;41.51
68107;BME280;54892;47.488;19.026;2023-03-21T12:53:34;99841.72;;;16.63;40.70
68107;BME280;54892;47.488;19.026;2023-03-21T12:56:44;99850.19;;;16.65;40.32
68107;BME280;54892;47.488;19.026;2023-03-21T12:59:49;99842.97;;;16.65;40.45
68107;BME280;54892;47.488;19.026;2023-03-21T13:02:58;99843.78;;;16.66;40.71
68107;BME280;54892;47.488;19.026;2023-03-21T13:06:02;99828.00;;;16.92;40.72
68107;BME280;54892;47.488;19.026;2023-03-21T13:09:09;99822.28;;;17.22;39.80
68107;BME280;54892;47.488;19.026;2023-03-21T13:12:23;99811.50;;;17.58;38.39
68107;BME280;54892;47.488;19.026;2023-03-21T13:18:53;99800.25;;;17.70;36.98
68107;BME280;54892;47.488;19.026;2023-03-21T13:22:01;99808.78;;;17.49;37.59
68107;BME280;54892;47.488;19.026;2023-03-21T13:25:14;99804.97;;;17.42;37.36
68107;BME280;54892;47.488;19.026;2023-03-21T13:28:21;99806.16;;;17.27;35.67
68107;BME280;54892;47.488;19.026;2023-03-21T13:31:25;99803.78;;;17.25;36.17
68107;BME280;54892;47.488;19.026;2023-03-21T13:34:30;99804.81;;;17.15;36.22
68107;BME280;54892;47.488;19.026;2023-03-21T13:37:37;99801.06;;;17.16;36.48
68107;BME280;54892;47.488;19.026;2023-03-21T13:40:42;99807.62;;;17.10;37.92
68107;BME280;54892;47.488;19.026;2023-03-21T13:43:52;99807.38;;;16.98;38.51
68107;BME280;54892;47.488;19.026;2023-03-21T13:46:58;99799.69;;;16.96;38.84
68107;BME280;54892;47.488;19.026;2023-03-21T13:50:19;99799.91;;;16.86;38.35
68107;BME280;54892;47.488;19.026;2023-03-21T13:53:24;99793.91;;;16.80;36.93
68107;BME280;54892;47.488;19.026;2023-03-21T13:56:47;99794.50;;;16.77;37.03
68107;BME280;54892;47.488;19.026;2023-03-21T13:59:52;99787.94;;;16.97;36.71
68107;BME280;54892;47.488;19.026;2023-03-21T14:03:17;99797.31;;;16.95;37.16
68107;BME280;54892;47.488;19.026;2023-03-21T14:06:21;99781.00;;;16.96;37.50
68107;BME280;54892;47.488;19.026;2023-03-21T14:09:27;99780.91;;;17.01;37.51
68107;BME280;54892;47.488;19.026;2023-03-21T14:12:34;99780.37;;;17.22;37.43
68107;BME280;54892;47.488;19.026;2023-03-21T14:15:40;99765.72;;;17.33;36.96
68107;BME280;54892;47.488;19.026;2023-03-21T14:18:58;99763.22;;;17.37;36.28
68107;BME280;54892;47.488;19.026;2023-03-21T14:22:02;99759.75;;;17.37;36.30
68107;BME280;54892;47.488;19.026;2023-03-21T14:25:06;99748.34;;;17.45;36.54
68107;BME280;54892;47.488;19.026;2023-03-21T14:28:12;99747.75;;;17.48;36.52
68107;BME280;54892;47.488;19.026;2023-03-21T14:31:17;99747.63;;;17.62;36.71
68107;BME280;54892;47.488;19.026;2023-03-21T14:34:22;99737.59;;;17.59;36.48
68107;BME280;54892;47.488;19.026;2023-03-21T14:37:28;99742.28;;;17.62;36.70
68107;BME280;54892;47.488;19.026;2023-03-21T14:40:32;99741.66;;;17.65;36.06
68107;BME280;54892;47.488;19.026;2023-03-21T14:43:35;99734.47;;;17.65;36.01
68107;BME280;54892;47.488;19.026;2023-03-21T14:46:38;99747.66;;;17.71;37.03
68107;BME280;54892;47.488;19.026;2023-03-21T14:49:43;99746.94;;;17.47;37.55
68107;BME280;54892;47.488;19.026;2023-03-21T14:52:47;99747.28;;;17.23;37.87
68107;BME280;54892;47.488;19.026;2023-03-21T14:55:53;99740.88;;;17.24;37.52
68107;BME280;54892;47.488;19.026;2023-03-21T14:58:59;99745.66;;;17.13;37.80
68107;BME280;54892;47.488;19.026;2023-03-21T15:02:04;99756.47;;;17.08;38.02
68107;BME280;54892;47.488;19.026;2023-03-21T15:05:13;99755.72;;;17.16;37.68
68107;BME280;54892;47.488;19.026;2023-03-21T15:08:18;99749.97;;;17.23;37.33
68107;BME280;54892;47.488;19.026;2023-03-21T15:11:27;99735.03;;;17.22;36.70
68107;BME280;54892;47.488;19.026;2023-03-21T15:14:31;99744.34;;;17.25;36.82
68107;BME280;54892;47.488;19.026;2023-03-21T15:17:35;99742.75;;;17.24;36.94
68107;BME280;54892;47.488;19.026;2023-03-21T15:20:40;99742.16;;;17.27;36.74
68107;BME280;54892;47.488;19.026;2023-03-21T15:23:44;99731.47;;;17.27;37.08
68107;BME280;54892;47.488;19.026;2023-03-21T15:26:48;99735.16;;;17.08;37.37
68107;BME280;54892;47.488;19.026;2023-03-21T15:29:52;99728.84;;;17.04;37.64
68107;BME280;54892;47.488;19.026;2023-03-21T15:32:57;99732.59;;;17.03;38.29
68107;BME280;54892;47.488;19.026;2023-03-21T15:36:07;99731.84;;;16.88;39.04
68107;BME280;54892;47.488;19.026;2023-03-21T15:39:11;99732.31;;;16.68;39.89
68107;BME280;54892;47.488;19.026;2023-03-21T15:42:22;99736.09;;;16.67;40.63
68107;BME280;54892;47.488;19.026;2023-03-21T15:45:26;99742.87;;;16.50;41.37
68107;BME280;54892;47.488;19.026;2023-03-21T15:48:33;99730.22;;;16.56;41.31
68107;BME280;54892;47.488;19.026;2023-03-21T15:51:38;99734.31;;;16.39;41.75
68107;BME280;54892;47.488;19.026;2023-03-21T15:54:43;99736.59;;;16.32;41.87
68107;BME280;54892;47.488;19.026;2023-03-21T15:57:48;99739.34;;;16.41;41.72
68107;BME280;54892;47.488;19.026;2023-03-21T16:00:52;99733.75;;;16.51;41.56
68107;BME280;54892;47.488;19.026;2023-03-21T16:03:57;99730.97;;;16.34;42.11
68107;BME280;54892;47.488;19.026;2023-03-21T16:07:12;99735.22;;;16.35;41.77
68107;BME280;54892;47.488;19.026;2023-03-21T16:10:25;99733.03;;;16.37;41.32
68107;BME280;54892;47.488;19.026;2023-03-21T16:13:29;99728.53;;;16.23;41.59
68107;BME280;54892;47.488;19.026;2023-03-21T16:16:33;99732.91;;;16.19;41.75
68107;BME280;54892;47.488;19.026;2023-03-21T16:19:37;99733.00;;;16.14;41.72
68107;BME280;54892;47.488;19.026;2023-03-21T16:22:44;99733.87;;;16.09;41.98
68107;BME280;54892;47.488;19.026;2023-03-21T16:25:47;99741.97;;;16.04;42.06
68107;BME280;54892;47.488;19.026;2023-03-21T16:28:56;99739.41;;;15.99;42.05
68107;BME280;54892;47.488;19.026;2023-03-21T16:32:01;99735.78;;;15.95;41.96